Time;durP1;ratioP1;P1;durP2;ratioP2;P2;SDS_P1;SDS_P2;PMS_P1;PMS_P2;Temp;Humidity;BMP_temperature;BMP_pressure;BME280_temperature;BME280_humidity;BME280_pressure;Samples;Min_cycle;Max_cycle;Signal;HPM_P1;HPM_P2
2021/12/02 00:00:24;;;;;;;3.85;0.90;;;5.80;99.90;;;;;;5055209;28;20025;-78
2021/12/02 00:02:49;;;;;;;10.35;1.30;;;6.00;99.90;;;;;;5055490;28;20029;-78
2021/12/02 00:05:16;;;;;;;2.92;0.90;;;6.00;99.90;;;;;;5037534;28;20053;-79
2021/12/02 00:07:42;;;;;;;4.45;1.02;;;6.10;99.90;;;;;;5056669;28;20064;-79
2021/12/02 00:10:08;;;;;;;11.27;1.98;;;6.10;99.90;;;;;;5058347;28;20112;-79
2021/12/02 00:12:34;;;;;;;13.20;1.45;;;6.20;99.90;;;;;;5055285;28;20025;-79
2021/12/02 00:15:05;;;;;;;4.72;0.95;;;6.40;99.90;;;;;;5054818;28;20079;-79
2021/12/02 00:17:36;;;;;;;8.13;1.50;;;6.40;99.90;;;;;;5037157;28;20036;-78
2021/12/02 00:23:28;;;;;;;11.00;1.70;;;6.30;99.90;;;;;;5064195;28;20090;-79
2021/12/02 00:25:59;;;;;;;7.90;1.17;;;6.30;99.90;;;;;;5059426;28;20039;-79
2021/12/02 00:28:28;;;;;;;7.97;1.50;;;6.20;99.90;;;;;;5054905;28;20029;-79
2021/12/02 00:30:59;;;;;;;8.65;1.85;;;6.30;99.90;;;;;;5054582;28;20439;-79
2021/12/02 00:33:27;;;;;;;9.93;1.30;;;6.30;99.90;;;;;;5054810;28;20412;-79
2021/12/02 00:35:53;;;;;;;8.15;1.60;;;6.20;99.90;;;;;;5054664;28;20499;-79
2021/12/02 00:38:20;;;;;;;10.27;1.70;;;6.20;99.90;;;;;;5054812;28;20388;-77
2021/12/02 00:40:47;;;;;;;13.68;1.60;;;6.10;99.90;;;;;;5054703;28;20450;-79
2021/12/02 00:43:13;;;;;;;11.25;1.40;;;6.20;99.90;;;;;;5054795;28;20023;-79
2021/12/02 00:45:41;;;;;;;11.02;1.05;;;6.10;99.90;;;;;;5054127;28;20025;-79
2021/12/02 00:48:12;;;;;;;7.55;1.60;;;6.20;99.90;;;;;;5036923;28;20025;-77
2021/12/02 00:50:42;;;;;;;13.70;1.23;;;6.20;99.90;;;;;;5054298;28;20129;-79
2021/12/02 00:53:09;;;;;;;8.20;1.17;;;6.10;99.90;;;;;;5036611;28;20040;-79
2021/12/02 00:55:38;;;;;;;7.65;0.80;;;6.10;99.90;;;;;;5063185;28;20040;-79
2021/12/02 00:58:05;;;;;;;7.35;1.73;;;6.00;99.90;;;;;;5058649;28;20488;-79
2021/12/02 01:00:32;;;;;;;11.38;1.30;;;6.00;99.90;;;;;;5035684;28;20123;-80
2021/12/02 01:03:02;;;;;;;14.30;1.10;;;5.90;99.90;;;;;;5054426;28;20036;-79
2021/12/02 01:05:30;;;;;;;9.32;1.00;;;5.80;99.90;;;;;;5054054;28;20020;-79
2021/12/02 01:07:59;;;;;;;8.85;0.90;;;5.80;99.90;;;;;;5057590;28;20029;-80
2021/12/02 01:10:25;;;;;;;6.85;1.00;;;5.80;99.90;;;;;;5047642;28;20047;-80
2021/12/02 01:12:51;;;;;;;3.13;0.68;;;5.70;99.90;;;;;;5043164;28;20481;-80
2021/12/02 01:15:17;;;;;;;6.70;1.02;;;5.60;99.90;;;;;;5053784;28;20040;-79
2021/12/02 01:17:43;;;;;;;14.35;2.00;;;5.60;99.90;;;;;;5053968;28;20067;-81
2021/12/02 01:20:09;;;;;;;8.52;2.35;;;5.60;99.90;;;;;;5053931;28;20029;-79
2021/12/02 01:22:37;;;;;;;13.10;1.48;;;5.60;99.90;;;;;;5054183;28;20029;-78
2021/12/02 01:25:07;;;;;;;11.45;1.48;;;5.60;99.90;;;;;;5058044;28;20024;-79
2021/12/02 01:27:35;;;;;;;15.45;1.15;;;5.60;99.90;;;;;;5055721;28;20107;-79
2021/12/02 01:30:03;;;;;;;8.40;0.90;;;5.60;99.90;;;;;;5055942;28;20108;-79
2021/12/02 01:32:33;;;;;;;7.25;1.00;;;5.60;99.90;;;;;;5074300;28;20407;-78
2021/12/02 01:35:03;;;;;;;8.68;1.20;;;5.60;99.90;;;;;;5056852;28;20045;-79
2021/12/02 01:37:29;;;;;;;13.35;1.80;;;5.70;99.90;;;;;;5053451;28;20021;-79
2021/12/02 01:39:56;;;;;;;9.75;1.55;;;5.70;99.90;;;;;;5053807;28;20021;-80
2021/12/02 01:42:24;;;;;;;10.15;1.15;;;5.80;99.90;;;;;;5053362;28;20029;-79
2021/12/02 01:44:56;;;;;;;9.55;1.15;;;5.80;99.90;;;;;;5035947;28;20469;-80
2021/12/02 01:47:30;;;;;;;8.88;2.03;;;5.80;99.90;;;;;;5053615;28;20035;-77
2021/12/02 01:49:59;;;;;;;10.40;1.17;;;5.90;99.90;;;;;;5053700;28;20094;-79
2021/12/02 01:52:31;;;;;;;7.88;0.95;;;5.90;99.90;;;;;;5053580;28;20013;-80
2021/12/02 01:55:05;;;;;;;6.35;1.23;;;5.90;99.90;;;;;;5053608;28;20040;-79
2021/12/02 01:57:36;;;;;;;8.30;2.08;;;5.90;99.90;;;;;;5053015;28;20029;-79
2021/12/02 02:00:20;;;;;;;9.95;1.55;;;5.90;99.90;;;;;;5053752;28;20025;-80
2021/12/02 02:02:48;;;;;;;10.50;1.00;;;5.90;99.90;;;;;;5035614;28;20529;-79
2021/12/02 02:05:15;;;;;;;10.90;1.52;;;5.80;99.90;;;;;;5053412;28;20036;-76
2021/12/02 02:08:03;;;;;;;11.32;1.48;;;5.80;99.90;;;;;;5054361;28;20086;-79
2021/12/02 02:10:35;;;;;;;13.30;1.20;;;5.70;99.90;;;;;;5054963;28;20461;-79
2021/12/02 02:13:05;;;;;;;;;;;5.60;99.90;;;;;;5072974;28;20064;-79
2021/12/02 02:15:31;;;;;;;7.47;0.95;;;5.50;99.90;;;;;;5073309;28;19916;-79
2021/12/02 02:18:43;;;;;;;14.75;1.33;;;5.40;99.90;;;;;;5073163;28;20482;-78
2021/12/02 02:20:51;;;;;;;10.25;0.95;;;5.30;99.90;;;;;;5061759;28;20382;-80
2021/12/02 02:23:17;;;;;;;5.43;1.20;;;5.30;99.90;;;;;;5073268;28;20435;-80
2021/12/02 02:25:45;;;;;;;13.35;1.17;;;5.30;99.90;;;;;;5072393;28;20028;-79
2021/12/02 02:28:11;;;;;;;11.95;1.70;;;5.30;99.90;;;;;;5072976;28;20162;-80
2021/12/02 02:30:38;;;;;;;11.80;1.70;;;5.20;99.90;;;;;;5072931;28;20029;-79
2021/12/02 02:33:04;;;;;;;10.60;1.85;;;5.20;99.90;;;;;;5054889;28;20039;-80
2021/12/02 02:35:30;;;;;;;8.90;1.58;;;5.20;99.90;;;;;;5072770;28;20052;-80
2021/12/02 02:37:56;;;;;;;11.32;1.00;;;5.30;99.90;;;;;;5072898;28;20032;-79
2021/12/02 02:40:24;;;;;;;6.25;1.25;;;5.30;99.90;;;;;;5072692;28;20112;-80
2021/12/02 02:42:56;;;;;;;5.95;0.85;;;5.20;99.90;;;;;;5072775;28;20052;-80
2021/12/02 02:45:23;;;;;;;10.60;1.13;;;5.30;99.90;;;;;;5072866;28;20024;-79
2021/12/02 02:47:49;;;;;;;7.68;1.33;;;5.20;99.90;;;;;;5072607;28;20072;-80
2021/12/02 02:50:17;;;;;;;6.93;1.10;;;5.20;99.90;;;;;;5072710;28;20457;-79
2021/12/02 02:52:44;;;;;;;5.82;1.42;;;5.10;99.90;;;;;;5072682;28;20473;-79
2021/12/02 02:55:18;;;;;;;3.05;1.15;;;5.00;99.90;;;;;;5072451;28;20060;-78
2021/12/02 02:57:55;;;;;;;9.65;1.05;;;4.90;99.90;;;;;;5054647;28;20100;-78
2021/12/02 03:00:29;;;;;;;3.08;0.52;;;4.80;99.90;;;;;;5072639;28;20028;-78
2021/12/02 03:06:02;;;;;;;5.93;0.60;;;4.80;99.90;;;;;;5072645;28;20033;-78
2021/12/02 03:08:36;;;;;;;5.20;0.60;;;4.90;99.90;;;;;;5071980;28;20035;-79
2021/12/02 03:11:02;;;;;;;5.90;0.68;;;5.00;99.90;;;;;;5054828;28;20123;-79
2021/12/02 03:16:43;;;;;;;1.58;0.60;;;4.90;99.90;;;;;;5059285;28;20123;-77
2021/12/02 03:19:10;;;;;;;4.50;0.60;;;5.00;99.90;;;;;;5072486;28;20025;-79
2021/12/02 03:21:37;;;;;;;5.00;0.50;;;5.10;99.90;;;;;;5072546;28;20085;-80
2021/12/02 03:24:03;;;;;;;2.35;0.80;;;5.00;99.90;;;;;;5074818;28;20021;-79
2021/12/02 03:26:29;;;;;;;5.93;0.73;;;5.00;99.90;;;;;;5076082;28;20032;-79
2021/12/02 03:28:56;;;;;;;5.82;0.70;;;4.90;99.90;;;;;;5076316;28;20028;-79
2021/12/02 03:31:22;;;;;;;4.20;0.60;;;4.80;99.90;;;;;;5076183;28;20056;-79
2021/12/02 03:33:48;;;;;;;3.50;0.60;;;4.80;99.90;;;;;;5076080;28;20029;-80
2021/12/02 03:36:16;;;;;;;5.57;0.95;;;4.70;99.90;;;;;;5076075;28;20040;-79
2021/12/02 03:38:42;;;;;;;1.90;0.45;;;4.60;99.90;;;;;;5057848;28;20434;-80
2021/12/02 03:41:08;;;;;;;5.40;0.77;;;4.50;99.90;;;;;;5076202;28;20100;-79
2021/12/02 03:43:35;;;;;;;3.20;0.77;;;4.50;99.90;;;;;;5075873;28;20107;-78
2021/12/02 03:46:01;;;;;;;4.82;0.93;;;4.50;99.90;;;;;;5058356;28;20043;-78
2021/12/02 03:48:27;;;;;;;9.07;1.00;;;4.60;99.90;;;;;;5041352;28;20365;-78
2021/12/02 03:50:53;;;;;;;11.68;3.80;;;4.60;99.90;;;;;;5075747;28;20036;-79
2021/12/02 03:53:18;;;;;;;8.70;1.00;;;4.70;99.90;;;;;;5075424;28;20031;-79
2021/12/02 03:55:44;;;;;;;4.85;0.60;;;4.60;99.90;;;;;;5075657;28;20111;-80
2021/12/02 03:58:10;;;;;;;13.07;1.05;;;4.60;99.90;;;;;;5075717;28;20024;-79
2021/12/02 04:00:36;;;;;;;3.60;1.10;;;4.70;99.90;;;;;;5057607;28;20028;-79
2021/12/02 04:03:02;;;;;;;4.53;0.88;;;4.60;99.90;;;;;;5057685;28;20039;-79
2021/12/02 04:05:28;;;;;;;3.72;0.85;;;4.50;99.90;;;;;;5075593;28;20485;-79
2021/12/02 04:07:54;;;;;;;9.82;1.45;;;4.60;99.90;;;;;;5075255;28;20048;-80
2021/12/02 04:10:21;;;;;;;8.75;1.50;;;4.60;99.90;;;;;;5075455;28;20040;-79
2021/12/02 04:15:20;;;;;;;7.20;1.20;;;4.80;99.90;;;;;;5075148;28;20128;-79
2021/12/02 04:17:46;;;;;;;8.15;2.00;;;4.80;99.90;;;;;;5075368;28;20047;-80
2021/12/02 04:20:24;;;;;;;11.00;1.35;;;4.90;99.90;;;;;;5057607;28;20028;-79
2021/12/02 04:22:52;;;;;;;7.10;1.05;;;4.90;99.90;;;;;;5057029;28;20024;-80
2021/12/02 04:25:18;;;;;;;1.42;0.50;;;4.90;99.90;;;;;;5074966;28;20020;-79
2021/12/02 04:27:45;;;;;;;4.72;0.70;;;4.90;99.90;;;;;;5075148;28;20028;-80
2021/12/02 04:30:12;;;;;;;1.90;0.38;;;4.80;99.90;;;;;;5075143;28;20487;-80
2021/12/02 04:32:39;;;;;;;3.55;0.60;;;4.80;99.90;;;;;;5075303;28;20037;-79
2021/12/02 04:35:05;;;;;;;3.58;0.50;;;4.80;99.90;;;;;;5073981;28;20033;-80
2021/12/02 04:37:31;;;;;;;3.03;1.00;;;4.70;99.90;;;;;;5056734;28;20078;-80
2021/12/02 04:39:57;;;;;;;10.32;1.40;;;4.60;99.90;;;;;;5075047;28;20384;-79
2021/12/02 04:42:23;;;;;;;7.82;1.65;;;4.60;99.90;;;;;;5075032;28;20017;-79
2021/12/02 04:44:49;;;;;;;5.55;1.27;;;4.50;99.90;;;;;;5074797;28;20448;-79
2021/12/02 04:47:15;;;;;;;3.63;0.85;;;4.50;99.90;;;;;;5074748;28;20039;-79
2021/12/02 04:49:43;;;;;;;4.65;0.80;;;4.50;99.90;;;;;;5074709;28;20100;-80
2021/12/02 04:52:09;;;;;;;6.65;0.73;;;4.50;99.90;;;;;;5074552;28;20024;-80
2021/12/02 04:54:35;;;;;;;4.22;1.15;;;4.50;99.90;;;;;;5074636;28;20042;-78
2021/12/02 04:57:01;;;;;;;6.10;1.92;;;4.60;99.90;;;;;;5074614;28;20044;-79
2021/12/02 04:59:27;;;;;;;5.65;1.40;;;4.60;99.90;;;;;;5056789;28;20028;-77
2021/12/02 05:01:53;;;;;;;6.13;0.80;;;4.60;99.90;;;;;;5074464;28;20020;-79
2021/12/02 05:04:18;;;;;;;10.13;1.50;;;4.60;99.90;;;;;;5039616;28;20110;-79
2021/12/02 05:06:44;;;;;;;13.32;1.67;;;4.60;99.90;;;;;;5074061;28;20025;-79
2021/12/02 05:09:10;;;;;;;7.13;2.03;;;4.70;99.90;;;;;;5074194;28;20060;-79
2021/12/02 05:11:38;;;;;;;13.65;1.38;;;4.70;99.90;;;;;;5074275;28;20105;-78
2021/12/02 05:14:05;;;;;;;7.65;0.98;;;4.60;99.90;;;;;;5074355;28;20047;-80
2021/12/02 05:16:30;;;;;;;10.90;1.15;;;4.60;99.90;;;;;;5074154;28;20186;-79
2021/12/02 05:18:56;;;;;;;2.63;0.55;;;4.50;99.90;;;;;;5074168;28;20115;-79
2021/12/02 05:21:22;;;;;;;4.13;0.98;;;4.40;99.90;;;;;;5073804;28;20469;-79
2021/12/02 05:23:53;;;;;;;9.63;1.40;;;4.20;99.90;;;;;;5055992;28;20040;-79
2021/12/02 05:26:23;;;;;;;7.13;1.23;;;4.20;99.90;;;;;;5073653;28;20047;-80
2021/12/02 05:28:50;;;;;;;11.32;1.65;;;4.20;99.90;;;;;;5056083;28;20283;-79
2021/12/02 05:31:17;;;;;;;10.60;1.48;;;4.20;99.90;;;;;;5073760;28;20036;-80
2021/12/02 05:33:42;;;;;;;11.57;1.98;;;4.30;99.90;;;;;;5039173;28;20040;-80
2021/12/02 05:36:08;;;;;;;10.23;1.42;;;4.30;99.90;;;;;;5073539;28;20047;-80
2021/12/02 05:38:35;;;;;;;8.93;1.17;;;4.40;99.90;;;;;;5073869;28;20035;-79
2021/12/02 05:41:01;;;;;;;12.43;1.67;;;4.50;99.90;;;;;;5073675;28;20032;-80
2021/12/02 05:43:26;;;;;;;10.00;1.73;;;4.60;99.90;;;;;;5073560;28;20086;-79
2021/12/02 05:45:52;;;;;;;11.70;1.80;;;4.70;99.90;;;;;;5073365;28;20024;-80
2021/12/02 05:48:18;;;;;;;11.13;2.15;;;4.90;99.90;;;;;;5055484;28;20024;-78
2021/12/02 05:50:44;;;;;;;9.50;1.75;;;4.90;99.90;;;;;;5073401;28;20427;-78
2021/12/02 05:53:10;;;;;;;19.48;2.00;;;4.80;99.90;;;;;;5073790;28;20075;-79
2021/12/02 05:55:36;;;;;;;12.68;2.08;;;4.80;99.90;;;;;;5073167;28;20484;-79
2021/12/02 05:58:01;;;;;;;7.05;1.40;;;4.50;99.90;;;;;;5073463;28;20029;-79
2021/12/02 06:00:27;;;;;;;9.93;1.58;;;4.30;99.90;;;;;;5073168;28;20025;-80
2021/12/02 06:02:53;;;;;;;6.82;1.30;;;4.20;99.90;;;;;;5073071;28;20040;-80
2021/12/02 06:05:20;;;;;;;13.45;1.70;;;4.10;99.90;;;;;;5073398;28;20039;-80
2021/12/02 06:07:52;;;;;;;11.57;1.55;;;4.00;99.90;;;;;;5071024;28;20499;-81
2021/12/02 06:10:18;;;;;;;;;;;4.10;99.90;;;;;;5053776;28;20117;-81
2021/12/02 06:12:44;;;;;;;13.52;1.88;;;4.10;99.90;;;;;;5053120;28;20003;-81
2021/12/02 06:15:10;;;;;;;18.65;2.08;;;4.10;99.90;;;;;;5053094;28;20044;-82
2021/12/02 06:17:36;;;;;;;10.63;1.15;;;4.10;99.90;;;;;;5052861;28;20044;-81
2021/12/02 06:20:06;;;;;;;6.50;1.08;;;4.20;99.90;;;;;;5052781;28;20032;-81
2021/12/02 06:22:33;;;;;;;9.70;1.42;;;4.20;99.90;;;;;;5035244;28;20108;-81
2021/12/02 06:27:48;;;;;;;7.38;1.65;;;4.40;99.90;;;;;;5053000;28;20044;-81
2021/12/02 06:30:16;;;;;;;8.95;1.50;;;4.50;99.90;;;;;;5052953;28;20021;-80
2021/12/02 06:32:42;;;;;;;7.85;2.38;;;4.60;99.90;;;;;;5034583;28;20112;-80
2021/12/02 06:35:08;;;;;;;11.70;1.60;;;4.60;99.90;;;;;;5052826;28;20115;-79
2021/12/02 06:37:34;;;;;;;10.35;2.08;;;4.60;99.90;;;;;;5052716;28;20501;-81
2021/12/02 06:40:00;;;;;;;12.68;1.63;;;4.50;99.90;;;;;;5052931;28;20021;-80
2021/12/02 06:42:25;;;;;;;7.40;1.55;;;4.50;99.90;;;;;;5034944;28;20032;-80
2021/12/02 06:44:51;;;;;;;4.80;0.85;;;4.50;99.90;;;;;;5035051;28;20454;-79
2021/12/02 06:47:18;;;;;;;8.00;1.27;;;4.30;99.90;;;;;;5052375;28;20108;-79
2021/12/02 06:49:44;;;;;;;5.38;0.98;;;3.70;99.90;;;;;;5052577;28;20025;-78
2021/12/02 06:52:12;;;;;;;11.85;1.38;;;3.50;99.90;;;;;;5052636;28;20037;-79
2021/12/02 06:54:38;;;;;;;5.40;1.20;;;3.40;99.90;;;;;;5052804;28;20025;-78
2021/12/02 06:57:04;;;;;;;8.88;1.20;;;3.30;99.90;;;;;;5052366;28;20045;-78
2021/12/02 06:59:30;;;;;;;5.97;0.68;;;3.10;99.90;;;;;;5056458;28;20058;-78
2021/12/02 07:01:56;;;;;;;6.53;0.80;;;2.70;99.90;;;;;;5038510;28;20067;-79
2021/12/02 07:04:22;;;;;;;5.07;1.75;;;2.60;99.90;;;;;;5058555;28;20028;-77
2021/12/02 07:06:48;;;;;;;4.80;0.90;;;2.50;99.90;;;;;;5038285;28;20025;-76
2021/12/02 07:09:14;;;;;;;5.00;1.10;;;2.50;99.90;;;;;;5056150;28;20025;-76
2021/12/02 07:11:41;;;;;;;5.10;1.08;;;2.40;99.90;;;;;;5056122;28;20055;-76
2021/12/02 07:14:10;;;;;;;3.35;0.90;;;2.40;99.90;;;;;;5056113;28;20029;-75
2021/12/02 07:16:37;;;;;;;6.20;0.85;;;2.40;99.90;;;;;;5055961;28;20045;-77
2021/12/02 07:19:08;;;;;;;2.80;0.60;;;2.30;99.90;;;;;;5055854;28;20074;-77
2021/12/02 07:21:37;;;;;;;7.93;1.23;;;2.20;99.90;;;;;;5056106;28;20366;-77
2021/12/02 07:24:04;;;;;;;2.75;0.98;;;2.40;99.90;;;;;;5055738;28;20028;-77
2021/12/02 07:26:33;;;;;;;4.65;0.88;;;2.70;99.90;;;;;;5071554;28;20489;-76
2021/12/02 07:28:59;;;;;;;3.00;0.80;;;2.50;99.90;;;;;;5058060;28;20028;-76
2021/12/02 07:31:29;;;;;;;3.85;0.80;;;2.60;99.90;;;;;;5074201;28;20094;-76
2021/12/02 07:33:57;;;;;;;2.28;1.05;;;2.40;99.90;;;;;;5075376;28;20392;-77
2021/12/02 07:36:23;;;;;;;3.88;0.90;;;2.40;99.90;;;;;;5075613;28;20032;-76
2021/12/02 07:38:49;;;;;;;8.45;2.13;;;2.40;99.90;;;;;;5075685;28;20036;-77
2021/12/02 07:41:15;;;;;;;3.63;1.20;;;2.40;99.90;;;;;;5075658;28;20468;-77
2021/12/02 07:43:41;;;;;;;3.28;1.17;;;2.40;99.90;;;;;;5056264;28;20086;-77
2021/12/02 07:46:09;;;;;;;3.17;1.30;;;2.30;99.90;;;;;;5075173;28;20032;-77
2021/12/02 07:48:35;;;;;;;4.72;1.50;;;2.40;99.90;;;;;;5075221;28;20059;-77
2021/12/02 07:51:10;;;;;;;6.47;1.58;;;2.30;99.90;;;;;;5075635;28;20028;-77
2021/12/02 07:53:40;;;;;;;6.30;2.88;;;2.20;99.90;;;;;;5057388;28;20029;-76
2021/12/02 07:56:09;;;;;;;5.22;1.63;;;2.10;99.90;;;;;;5075220;28;20036;-78
2021/12/02 07:58:38;;;;;;;3.40;1.35;;;2.20;99.90;;;;;;5057127;28;20028;-78
2021/12/02 08:01:04;;;;;;;4.07;1.50;;;2.20;99.90;;;;;;5053652;28;20435;-78
2021/12/02 08:03:30;;;;;;;11.48;1.42;;;2.30;99.90;;;;;;5055046;28;20028;-78
2021/12/02 08:05:56;;;;;;;7.45;1.42;;;2.30;99.90;;;;;;5055111;28;20021;-77
2021/12/02 08:08:22;;;;;;;4.57;1.70;;;2.40;99.90;;;;;;5037147;28;20477;-77
2021/12/02 08:10:48;;;;;;;11.05;2.50;;;2.70;99.90;;;;;;5036240;28;20041;-78
2021/12/02 08:13:14;;;;;;;9.18;2.30;;;2.90;99.90;;;;;;5036737;28;20021;-79
2021/12/02 08:15:41;;;;;;;4.35;1.65;;;2.90;99.90;;;;;;5054914;28;20043;-77
2021/12/02 08:18:08;;;;;;;9.95;2.50;;;3.20;99.90;;;;;;5069581;28;20028;-79
2021/12/02 08:20:36;;;;;;;8.65;2.17;;;3.30;99.90;;;;;;5073794;28;20087;-78
2021/12/02 08:23:02;;;;;;;7.95;1.40;;;3.40;99.90;;;;;;5073779;28;20055;-77
2021/12/02 08:25:30;;;;;;;5.90;1.52;;;3.30;99.90;;;;;;5048757;28;20040;-78
2021/12/02 08:28:01;;;;;;;16.52;1.85;;;3.30;99.90;;;;;;5054900;28;20127;-78
2021/12/02 08:30:29;;;;;;;8.07;1.55;;;3.40;99.90;;;;;;5054907;28;20643;-78
2021/12/02 08:32:57;;;;;;;10.40;2.03;;;3.40;99.90;;;;;;5053573;28;20036;-79
2021/12/02 08:35:24;;;;;;;10.45;1.70;;;3.50;99.90;;;;;;5037091;28;20025;-78
2021/12/02 08:37:53;;;;;;;8.95;1.73;;;3.50;99.90;;;;;;5054780;28;20033;-78
2021/12/02 08:40:30;;;;;;;13.52;2.80;;;3.70;99.90;;;;;;5037105;28;20021;-78
2021/12/02 08:42:56;;;;;;;13.35;2.03;;;3.70;99.90;;;;;;5054475;28;20127;-78
2021/12/02 08:45:22;;;;;;;11.70;1.90;;;3.90;99.90;;;;;;5036785;28;20444;-78
2021/12/02 08:47:48;;;;;;;20.90;2.33;;;4.00;99.90;;;;;;5054769;28;20025;-79
2021/12/02 08:50:19;;;;;;;9.52;1.83;;;4.00;99.90;;;;;;5054455;28;20119;-79
2021/12/02 08:52:46;;;;;;;13.68;2.28;;;4.20;99.90;;;;;;5035577;28;20025;-79
2021/12/02 08:55:13;;;;;;;9.80;1.50;;;4.20;99.90;;;;;;5054438;28;20090;-79
2021/12/02 08:57:39;;;;;;;11.20;1.52;;;4.20;99.90;;;;;;5054561;28;20029;-80
2021/12/02 09:00:07;;;;;;;6.85;1.10;;;4.20;99.90;;;;;;5054479;28;20025;-79
2021/12/02 09:02:33;;;;;;;9.75;1.42;;;4.20;99.90;;;;;;5054687;28;20175;-79
2021/12/02 09:04:59;;;;;;;12.20;1.58;;;4.20;99.90;;;;;;5054464;28;20033;-79
2021/12/02 09:07:25;;;;;;;4.50;0.77;;;4.10;99.90;;;;;;5054591;28;20112;-78
2021/12/02 09:09:51;;;;;;;6.43;0.98;;;4.00;99.90;;;;;;5055472;28;20028;-78
2021/12/02 09:12:17;;;;;;;10.15;1.40;;;3.90;99.90;;;;;;5074066;28;20039;-77
2021/12/02 09:14:43;;;;;;;5.35;1.10;;;3.70;99.90;;;;;;5074262;28;20021;-78
2021/12/02 09:17:09;;;;;;;3.28;1.20;;;3.60;99.90;;;;;;5074166;28;20036;-78
2021/12/02 09:19:35;;;;;;;4.68;0.88;;;3.50;99.90;;;;;;5074105;28;20025;-79
2021/12/02 09:22:01;;;;;;;5.85;1.92;;;3.20;99.90;;;;;;5073833;28;20388;-79
2021/12/02 09:24:26;;;;;;;5.00;1.17;;;3.00;99.90;;;;;;5074482;28;20025;-78
2021/12/02 09:26:54;;;;;;;3.03;0.85;;;2.90;99.90;;;;;;5074350;28;20501;-79
2021/12/02 09:29:21;;;;;;;4.78;0.70;;;3.00;99.90;;;;;;5082003;28;20029;-79
2021/12/02 09:31:49;;;;;;;2.30;0.90;;;2.90;99.90;;;;;;5076019;28;20036;-79
2021/12/02 09:34:15;;;;;;;6.80;0.88;;;3.00;99.90;;;;;;5072777;28;20028;-80
2021/12/02 09:36:42;;;;;;;2.95;0.82;;;3.10;99.90;;;;;;5055797;28;20036;-79
2021/12/02 09:39:09;;;;;;;5.13;1.05;;;3.20;99.90;;;;;;5067141;28;20040;-80
2021/12/02 09:41:36;;;;;;;8.98;1.02;;;3.20;99.90;;;;;;5074919;28;20123;-79
2021/12/02 09:44:04;;;;;;;7.65;1.30;;;3.50;99.90;;;;;;5075118;28;20017;-78
2021/12/02 09:46:30;;;;;;;6.28;1.27;;;3.70;99.90;;;;;;5077472;28;20103;-78
2021/12/02 09:48:57;;;;;;;5.38;1.05;;;3.60;99.90;;;;;;5074400;28;20123;-78
2021/12/02 09:51:31;;;;;;;9.13;1.23;;;3.60;99.90;;;;;;5074905;28;20060;-78
2021/12/02 09:54:07;;;;;;;2.85;0.80;;;3.80;99.90;;;;;;5068875;28;20063;-76
2021/12/02 09:56:35;;;;;;;3.15;0.68;;;3.90;99.90;;;;;;5063502;28;20127;-81
2021/12/02 09:59:09;;;;;;;1.85;0.55;;;3.70;99.90;;;;;;5060552;28;20016;-78
2021/12/02 10:01:48;;;;;;;4.97;0.80;;;3.90;99.90;;;;;;5079130;28;20038;-78
2021/12/02 10:04:14;;;;;;;2.80;0.50;;;3.90;99.90;;;;;;5082814;28;20107;-78
2021/12/02 10:06:42;;;;;;;1.42;0.40;;;4.30;99.90;;;;;;5078484;28;20032;-79
2021/12/02 10:09:14;;;;;;;3.55;0.50;;;4.40;99.90;;;;;;5071653;28;20174;-78
2021/12/02 10:14:23;;;;;;;3.33;0.70;;;4.60;99.90;;;;;;5055567;28;20115;-78
2021/12/02 10:17:04;;;;;;;10.32;0.95;;;4.40;99.90;;;;;;5035404;28;20505;-78
2021/12/02 10:19:30;;;;;;;1.98;0.63;;;4.50;99.90;;;;;;5053179;28;20048;-79
2021/12/02 10:22:02;;;;;;;7.63;0.70;;;4.30;99.90;;;;;;5052917;28;20029;-79
2021/12/02 10:24:29;;;;;;;5.68;0.70;;;4.20;99.90;;;;;;5035094;28;20043;-79
2021/12/02 10:27:04;;;;;;;3.80;0.70;;;4.20;99.90;;;;;;5051366;28;20021;-79
2021/12/02 10:29:33;;;;;;;6.28;1.00;;;4.20;99.90;;;;;;5051106;28;20469;-76
2021/12/02 10:32:19;;;;;;;8.75;1.02;;;4.00;99.90;;;;;;5033513;28;20033;-74
2021/12/02 10:34:46;;;;;;;2.03;0.80;;;4.00;99.90;;;;;;5035128;28;20512;-74
2021/12/02 10:37:12;;;;;;;2.53;0.40;;;4.00;99.90;;;;;;5035002;28;20049;-79
2021/12/02 10:39:38;;;;;;;1.63;0.60;;;3.80;99.90;;;;;;5038713;28;20432;-73
2021/12/02 10:42:08;;;;;;;2.58;1.38;;;3.60;99.90;;;;;;5072719;28;20029;-75
2021/12/02 10:44:35;;;;;;;3.35;1.00;;;3.50;99.90;;;;;;5072953;28;20563;-78
2021/12/02 10:47:15;;;;;;;4.65;0.80;;;3.60;99.90;;;;;;5072779;28;20021;-79
2021/12/02 10:49:49;;;;;;;4.82;0.98;;;3.80;99.90;;;;;;5072892;28;20044;-79
2021/12/02 10:52:30;;;;;;;7.10;1.00;;;3.90;99.90;;;;;;5072725;28;20033;-77
2021/12/02 10:55:14;;;;;;;8.48;1.52;;;3.90;99.90;;;;;;5072452;28;20029;-79
2021/12/02 10:57:52;;;;;;;4.55;1.52;;;4.10;99.90;;;;;;5054784;28;20127;-78
2021/12/02 11:00:24;;;;;;;6.22;1.10;;;4.00;99.90;;;;;;5072715;28;20032;-78
2021/12/02 11:02:53;;;;;;;2.03;1.10;;;4.20;99.90;;;;;;5072518;28;20098;-77
2021/12/02 11:05:32;;;;;;;7.43;1.40;;;4.20;99.90;;;;;;5072658;28;20036;-76
2021/12/02 11:08:07;;;;;;;6.30;1.65;;;4.10;99.90;;;;;;5072197;28;20415;-77
2021/12/02 11:10:33;;;;;;;1.98;0.73;;;4.30;99.90;;;;;;5072437;28;20033;-78
2021/12/02 11:12:59;;;;;;;5.35;0.90;;;4.10;99.90;;;;;;5033312;28;20071;-78
2021/12/02 11:15:30;;;;;;;7.70;0.73;;;4.00;99.90;;;;;;5060533;28;20036;-78
2021/12/02 11:18:08;;;;;;;7.47;1.00;;;4.00;99.90;;;;;;5072125;28;20447;-76
2021/12/02 11:20:39;;;;;;;3.25;0.65;;;4.10;99.90;;;;;;5072646;28;20427;-76
2021/12/02 11:23:07;;;;;;;1.80;0.45;;;4.10;99.90;;;;;;5072031;28;20328;-76
2021/12/02 11:25:36;;;;;;;5.20;0.93;;;4.30;99.90;;;;;;5063947;28;20052;-76
2021/12/02 11:28:07;;;;;;;4.05;0.70;;;5.40;99.90;;;;;;5034410;28;20127;-76
2021/12/02 11:30:37;;;;;;;1.45;0.90;;;6.50;99.90;;;;;;5052167;28;20040;-75
2021/12/02 11:33:06;;;;;;;1.83;0.40;;;7.20;99.90;;;;;;5061952;28;20033;-75
2021/12/02 11:35:35;;;;;;;2.72;0.38;;;7.30;99.90;;;;;;5054463;28;20048;-76
2021/12/02 11:38:08;;;;;;;4.18;0.60;;;7.30;99.90;;;;;;5071860;28;20072;-75
2021/12/02 11:40:34;;;;;;;1.70;0.57;;;7.10;99.90;;;;;;5072209;28;20432;-75
2021/12/02 11:43:00;;;;;;;1.40;0.50;;;7.00;99.90;;;;;;5071940;28;20067;-77
2021/12/02 11:45:28;;;;;;;3.88;0.60;;;7.30;99.90;;;;;;5075306;28;20137;-76
2021/12/02 11:47:55;;;;;;;2.05;0.50;;;7.20;99.90;;;;;;5058069;28;20034;-75
2021/12/02 11:50:23;;;;;;;1.75;0.60;;;7.10;99.90;;;;;;5075425;28;20108;-76
2021/12/02 11:52:49;;;;;;;3.10;0.60;;;7.60;99.90;;;;;;5075459;28;20036;-76
2021/12/02 11:55:21;;;;;;;3.53;0.80;;;8.30;99.90;;;;;;5075526;28;20032;-76
2021/12/02 11:57:48;;;;;;;2.28;0.65;;;8.00;99.90;;;;;;5075627;28;20489;-77
2021/12/02 12:00:18;;;;;;;4.32;0.80;;;8.00;99.90;;;;;;5075439;28;20436;-78
2021/12/02 12:03:08;;;;;;;2.38;0.70;;;8.10;99.90;;;;;;5074481;28;20032;-78
2021/12/02 12:05:54;;;;;;;2.55;0.82;;;8.60;99.90;;;;;;5075027;28;20436;-81
2021/12/02 12:08:42;;;;;;;1.90;0.50;;;8.50;99.90;;;;;;5017346;28;20032;-78
2021/12/02 12:11:29;;;;;;;4.03;1.00;;;8.50;99.90;;;;;;5075657;28;20032;-77
2021/12/02 12:14:02;;;;;;;1.85;0.63;;;9.00;99.90;;;;;;5075534;28;20021;-78
2021/12/02 12:16:30;;;;;;;3.13;1.42;;;9.50;99.90;;;;;;5075295;28;20032;-78
2021/12/02 12:19:13;;;;;;;1.67;0.50;;;8.90;99.90;;;;;;5057454;28;20491;-78
2021/12/02 12:21:41;;;;;;;2.33;0.63;;;8.80;99.90;;;;;;5075110;28;20040;-79
2021/12/02 12:24:08;;;;;;;7.22;0.82;;;9.10;99.90;;;;;;5075172;28;20016;-78
2021/12/02 12:26:41;;;;;;;4.32;0.93;;;8.80;99.90;;;;;;5040763;28;20047;-79
2021/12/02 12:29:07;;;;;;;6.18;0.73;;;9.40;99.90;;;;;;5055163;28;20819;-78
2021/12/02 12:31:45;;;;;;;2.25;0.93;;;10.20;99.90;;;;;;5054987;28;20540;-78
2021/12/02 12:36:57;;;;;;;2.28;0.82;;;10.50;99.90;;;;;;5055039;28;20044;-78
2021/12/02 12:39:30;;;;;;;3.30;0.52;;;9.10;99.90;;;;;;5054763;28;20039;-79
2021/12/02 12:42:17;;;;;;;20.50;5.82;;;8.50;99.90;;;;;;5055118;28;20478;-79
2021/12/02 12:44:51;;;;;;;2.13;0.70;;;7.50;99.90;;;;;;5036927;28;20473;-79
2021/12/02 12:47:18;;;;;;;2.58;0.55;;;5.90;99.90;;;;;;5054769;28;20481;-78
2021/12/02 12:49:45;;;;;;;2.97;0.73;;;5.40;99.90;;;;;;5054274;28;20025;-77
2021/12/02 12:52:20;;;;;;;4.10;0.65;;;5.30;99.90;;;;;;5054813;28;20442;-77
2021/12/02 12:55:15;;;;;;;4.53;0.80;;;5.40;99.90;;;;;;5054557;28;20028;-78
2021/12/02 12:58:18;;;;;;;1.65;0.47;;;5.60;99.90;;;;;;5054753;28;20033;-78
2021/12/02 13:00:49;;;;;;;4.68;1.38;;;5.50;99.90;;;;;;5054401;28;20029;-78
2021/12/02 13:03:25;;;;;;;4.03;1.13;;;5.50;99.90;;;;;;5036666;28;20033;-77
2021/12/02 13:05:55;;;;;;;3.90;2.63;;;5.30;99.90;;;;;;5054432;28;20029;-76
2021/12/02 13:08:23;;;;;;;16.38;11.55;;;5.10;99.90;;;;;;5060859;28;20102;-78
2021/12/02 13:10:59;;;;;;;27.20;17.05;;;5.00;99.90;;;;;;5074343;28;20029;-76
2021/12/02 13:13:34;;;;;;;6.57;5.22;;;5.10;99.90;;;;;;5074325;28;20048;-77
2021/12/02 13:16:16;;;;;;;7.72;2.25;;;4.90;99.90;;;;;;5056286;28;20044;-77
2021/12/02 13:18:52;;;;;;;1.98;0.43;;;4.90;99.90;;;;;;5074202;28;20025;-77
2021/12/02 13:21:38;;;;;;;3.33;0.70;;;4.80;99.90;;;;;;5073920;28;20413;-77
2021/12/02 13:24:12;;;;;;;7.70;1.08;;;5.00;99.90;;;;;;5055947;28;20044;-77